createdAt,value
2023-04-07T00:00:07.827Z,8.54
2023-04-07T00:00:18.098Z,8.54
2023-04-07T00:00:28.348Z,8.56
2023-04-07T00:00:38.607Z,8.56
2023-04-07T00:00:48.866Z,8.56
2023-04-07T00:00:59.137Z,8.56
2023-04-07T00:01:09.393Z,8.56
2023-04-07T00:01:19.650Z,8.54
2023-04-07T00:01:29.972Z,8.54
2023-04-07T00:01:40.210Z,8.54
2023-04-07T00:01:50.489Z,8.56
2023-04-07T00:02:00.750Z,8.56
2023-04-07T00:02:11.050Z,8.54
2023-04-07T00:02:21.450Z,8.54
2023-04-07T00:02:31.604Z,8.54
2023-04-07T00:02:43.846Z,8.54
2023-04-07T00:02:52.314Z,8.54
2023-04-07T00:03:02.735Z,8.54
2023-04-07T00:03:12.958Z,8.56
2023-04-07T00:03:23.343Z,8.56
2023-04-07T00:03:33.555Z,8.53
2023-04-07T00:03:44.019Z,8.54
2023-04-07T00:03:54.311Z,8.56
2023-04-07T00:04:04.761Z,8.56
2023-04-07T00:04:14.814Z,8.54
2023-04-07T00:04:25.073Z,8.54
2023-04-07T00:04:35.299Z,8.56
2023-04-07T00:04:45.597Z,8.56
2023-04-07T00:04:55.866Z,8.56
2023-04-07T00:05:06.171Z,8.54
2023-04-07T00:05:16.471Z,8.54
2023-04-07T00:05:26.730Z,8.54
2023-04-07T00:05:37.007Z,8.56
2023-04-07T00:05:47.260Z,8.56
2023-04-07T00:05:57.513Z,8.54
2023-04-07T00:06:07.775Z,8.56
2023-04-07T00:06:18.038Z,8.54
2023-04-07T00:06:28.292Z,8.54
2023-04-07T00:06:38.571Z,8.56
2023-04-07T00:06:48.809Z,8.56
2023-04-07T00:06:59.070Z,8.54
2023-04-07T00:07:09.350Z,8.56
2023-04-07T00:07:19.601Z,8.56
2023-04-07T00:07:29.869Z,8.54
2023-04-07T00:07:48.907Z,8.54
2023-04-07T00:07:56.576Z,8.56
2023-04-07T00:08:01.903Z,8.54
2023-04-07T00:08:11.310Z,8.54
2023-04-07T00:08:21.573Z,8.56
2023-04-07T00:08:31.819Z,8.54
2023-04-07T00:08:42.079Z,8.54
2023-04-07T00:08:52.342Z,8.53
2023-04-07T00:09:02.619Z,8.54
2023-04-07T00:09:12.879Z,8.54
2023-04-07T00:09:23.129Z,8.54
2023-04-07T00:09:33.396Z,8.54
2023-04-07T00:09:43.655Z,8.56
2023-04-07T00:09:53.920Z,8.54
2023-04-07T00:10:04.176Z,8.56
2023-04-07T00:10:14.436Z,8.56
2023-04-07T00:10:24.741Z,8.54
2023-04-07T00:10:35.025Z,8.56
2023-04-07T00:10:45.256Z,8.54
2023-04-07T00:10:55.526Z,8.56
2023-04-07T00:11:05.799Z,8.56
2023-04-07T00:11:16.050Z,8.54
2023-04-07T00:11:26.310Z,8.56
2023-04-07T00:11:36.585Z,8.56
2023-04-07T00:11:46.834Z,8.54
2023-04-07T00:11:57.144Z,8.56
2023-04-07T00:12:07.405Z,8.54
2023-04-07T00:12:17.673Z,8.54
2023-04-07T00:12:27.921Z,8.54
2023-04-07T00:12:38.181Z,8.56
2023-04-07T00:12:48.450Z,8.56
2023-04-07T00:12:58.721Z,8.56
2023-04-07T00:13:08.988Z,8.56
2023-04-07T00:13:19.254Z,8.54
2023-04-07T00:13:30.625Z,8.54
2023-04-07T00:13:39.760Z,8.54
2023-04-07T00:13:50.029Z,8.54
2023-04-07T00:14:00.292Z,8.54
2023-04-07T00:14:10.561Z,8.56
2023-04-07T00:14:20.820Z,8.56
2023-04-07T00:14:31.073Z,8.56
2023-04-07T00:14:41.346Z,8.56
2023-04-07T00:14:51.612Z,8.56
2023-04-07T00:15:01.868Z,8.56
2023-04-07T00:15:12.115Z,8.56
2023-04-07T00:15:22.390Z,8.54
2023-04-07T00:15:32.660Z,8.56
2023-04-07T00:15:42.905Z,8.56
2023-04-07T00:15:53.220Z,8.56
2023-04-07T00:16:03.475Z,8.54
2023-04-07T00:16:13.784Z,8.54
2023-04-07T00:16:24.106Z,8.56
2023-04-07T00:16:34.427Z,8.54
2023-04-07T00:16:44.680Z,8.56
2023-04-07T00:16:54.940Z,8.56
2023-04-07T00:17:05.202Z,8.54
2023-04-07T00:17:15.458Z,8.54
2023-04-07T00:17:25.727Z,8.54
2023-04-07T00:17:36.015Z,8.54
2023-04-07T00:17:46.335Z,8.54
2023-04-07T00:17:56.645Z,8.54
2023-04-07T00:18:06.959Z,8.54
2023-04-07T00:18:17.207Z,8.54
2023-04-07T00:18:27.476Z,8.56
2023-04-07T00:18:37.740Z,8.54
2023-04-07T00:18:47.995Z,8.54
2023-04-07T00:18:58.252Z,8.54
2023-04-07T00:19:08.554Z,8.54
2023-04-07T00:19:18.789Z,8.54
2023-04-07T00:19:29.051Z,8.54
2023-04-07T00:19:39.333Z,8.56
2023-04-07T00:19:49.579Z,8.54
2023-04-07T00:19:59.837Z,8.56
2023-04-07T00:20:10.114Z,8.54
2023-04-07T00:20:20.358Z,8.53
2023-04-07T00:20:30.656Z,8.56
2023-04-07T00:20:40.900Z,8.56
2023-04-07T00:20:51.150Z,8.56
2023-04-07T00:21:01.453Z,8.56
2023-04-07T00:21:11.706Z,8.56
2023-04-07T00:21:21.960Z,8.54
2023-04-07T00:21:32.235Z,8.54
2023-04-07T00:21:42.484Z,8.56
2023-04-07T00:21:52.745Z,8.56
2023-04-07T00:22:03.033Z,8.56
2023-04-07T00:22:13.263Z,8.53
2023-04-07T00:22:23.523Z,8.57
2023-04-07T00:22:33.792Z,8.56
2023-04-07T00:22:44.047Z,8.56
2023-04-07T00:22:54.302Z,8.56
2023-04-07T00:23:04.564Z,8.57
2023-04-07T00:23:14.829Z,8.54
2023-04-07T00:23:25.087Z,8.56
2023-04-07T00:23:35.353Z,8.57
2023-04-07T00:23:45.606Z,8.57
2023-04-07T00:23:56.161Z,8.56
2023-04-07T00:24:06.217Z,8.56
2023-04-07T00:24:27.137Z,8.56
2023-04-07T00:24:34.464Z,8.56
2023-04-07T00:24:38.033Z,8.56
2023-04-07T00:24:47.427Z,8.56
2023-04-07T00:24:57.699Z,8.57
2023-04-07T00:25:07.949Z,8.56
2023-04-07T00:25:18.216Z,8.56
2023-04-07T00:25:28.460Z,8.56
2023-04-07T00:25:38.750Z,8.56
2023-04-07T00:25:48.982Z,8.56
2023-04-07T00:25:59.241Z,8.57
2023-04-07T00:26:09.507Z,8.57
2023-04-07T00:26:19.772Z,8.57
2023-04-07T00:26:30.037Z,8.56
2023-04-07T00:26:40.292Z,8.57
2023-04-07T00:26:50.552Z,8.56
2023-04-07T00:27:00.820Z,8.57
2023-04-07T00:27:11.079Z,8.56
2023-04-07T00:27:21.333Z,8.57
2023-04-07T00:27:31.600Z,8.56
2023-04-07T00:27:41.856Z,8.56
2023-04-07T00:27:52.121Z,8.56
2023-04-07T00:28:02.396Z,8.56
2023-04-07T00:28:12.637Z,8.56
2023-04-07T00:28:22.897Z,8.56
2023-04-07T00:28:33.155Z,8.56
2023-04-07T00:28:43.432Z,8.56
2023-04-07T00:28:53.705Z,8.56
2023-04-07T00:29:03.946Z,8.56
2023-04-07T00:29:14.256Z,8.57
2023-04-07T00:29:24.476Z,8.54
2023-04-07T00:29:34.741Z,8.57
2023-04-07T00:29:45.006Z,8.56
2023-04-07T00:29:55.261Z,8.56
2023-04-07T00:30:05.519Z,8.57
2023-04-07T00:30:15.793Z,8.56
2023-04-07T00:30:26.040Z,8.57
2023-04-07T00:30:36.301Z,8.56
2023-04-07T00:30:46.562Z,8.56
2023-04-07T00:30:56.859Z,8.57
2023-04-07T00:31:07.137Z,8.56
2023-04-07T00:31:17.399Z,8.56
2023-04-07T00:31:27.677Z,8.57
2023-04-07T00:31:38.012Z,8.56
2023-04-07T00:31:48.292Z,8.56
2023-04-07T00:31:58.561Z,8.57
2023-04-07T00:32:08.799Z,8.57
2023-04-07T00:32:19.085Z,8.59
2023-04-07T00:32:29.367Z,8.57
2023-04-07T00:32:39.704Z,8.56
2023-04-07T00:32:50.095Z,8.57
2023-04-07T00:33:00.399Z,8.56
2023-04-07T00:33:10.702Z,8.56
2023-04-07T00:33:20.954Z,8.56
2023-04-07T00:33:31.209Z,8.56
2023-04-07T00:33:41.510Z,8.57
2023-04-07T00:33:51.751Z,8.57
2023-04-07T00:34:02.029Z,8.56
2023-04-07T00:34:12.300Z,8.56
2023-04-07T00:34:22.498Z,8.57
2023-04-07T00:34:32.760Z,8.56
2023-04-07T00:34:43.021Z,8.56
2023-04-07T00:34:53.304Z,8.57
2023-04-07T00:35:03.554Z,8.57
2023-04-07T00:35:13.814Z,8.57
2023-04-07T00:35:24.143Z,8.54
2023-04-07T00:35:34.405Z,8.57
2023-04-07T00:35:44.691Z,8.57
2023-04-07T00:35:54.987Z,8.56
2023-04-07T00:36:05.278Z,8.56
2023-04-07T00:36:15.569Z,8.57
2023-04-07T00:36:25.814Z,8.56
2023-04-07T00:36:36.083Z,8.56
2023-04-07T00:36:46.334Z,8.54
2023-04-07T00:36:56.595Z,8.57
2023-04-07T00:37:06.856Z,8.56
2023-04-07T00:37:17.130Z,8.57
2023-04-07T00:37:27.378Z,8.54
2023-04-07T00:37:37.642Z,8.56
2023-04-07T00:37:47.896Z,8.56
2023-04-07T00:37:58.162Z,8.56
2023-04-07T00:38:08.428Z,8.56
2023-04-07T00:38:18.682Z,8.56
2023-04-07T00:38:28.949Z,8.56
2023-04-07T00:38:39.198Z,8.56
2023-04-07T00:38:49.476Z,8.56
2023-04-07T00:38:59.735Z,8.56
2023-04-07T00:39:10.013Z,8.57
2023-04-07T00:39:20.271Z,8.56
2023-04-07T00:39:30.522Z,8.57
2023-04-07T00:39:40.786Z,8.56
2023-04-07T00:39:51.045Z,8.56
2023-04-07T00:40:01.316Z,8.56
2023-04-07T00:40:11.567Z,8.57
2023-04-07T00:40:21.828Z,8.56
2023-04-07T00:40:32.099Z,8.57
2023-04-07T00:40:42.394Z,8.56
2023-04-07T00:40:52.613Z,8.56
2023-04-07T00:41:02.878Z,8.56
2023-04-07T00:41:13.138Z,8.54
2023-04-07T00:41:23.404Z,8.57
2023-04-07T00:41:33.672Z,8.56
2023-04-07T00:41:43.922Z,8.57
2023-04-07T00:41:54.188Z,8.57
2023-04-07T00:42:04.466Z,8.57
2023-04-07T00:42:14.706Z,8.56
2023-04-07T00:42:24.973Z,8.56
2023-04-07T00:42:35.233Z,8.56
2023-04-07T00:42:45.504Z,8.57
2023-04-07T00:42:55.761Z,8.54
2023-04-07T00:43:06.020Z,8.56
2023-04-07T00:43:16.272Z,8.56
2023-04-07T00:43:26.533Z,8.56
2023-04-07T00:43:36.793Z,8.56
2023-04-07T00:43:47.057Z,8.56
2023-04-07T00:43:57.320Z,8.56
2023-04-07T00:44:07.597Z,8.56
2023-04-07T00:44:17.845Z,8.56
2023-04-07T00:44:28.109Z,8.54
2023-04-07T00:44:38.378Z,8.57
2023-04-07T00:44:48.645Z,8.56
2023-04-07T00:44:58.892Z,8.56
2023-04-07T00:45:09.150Z,8.56
2023-04-07T00:45:19.409Z,8.56
2023-04-07T00:45:29.672Z,8.56
2023-04-07T00:45:39.962Z,8.57
2023-04-07T00:45:50.202Z,8.56
2023-04-07T00:46:00.525Z,8.56
2023-04-07T00:46:10.815Z,8.54
2023-04-07T00:46:21.084Z,8.57
2023-04-07T00:46:31.381Z,8.56
2023-04-07T00:46:41.637Z,8.56
2023-04-07T00:46:51.974Z,8.56
2023-04-07T00:47:02.268Z,8.57
2023-04-07T00:47:12.530Z,8.54
2023-04-07T00:47:22.804Z,8.57
2023-04-07T00:47:33.061Z,8.54
2023-04-07T00:47:43.405Z,8.56
2023-04-07T00:47:53.640Z,8.56
2023-04-07T00:48:03.971Z,8.57
2023-04-07T00:48:14.184Z,8.54
2023-04-07T00:48:24.450Z,8.56
2023-04-07T00:48:34.713Z,8.56
2023-04-07T00:48:44.988Z,8.56
2023-04-07T00:48:55.229Z,8.56
2023-04-07T00:49:05.507Z,8.56
2023-04-07T00:49:15.789Z,8.54
2023-04-07T00:49:26.030Z,8.56
2023-04-07T00:49:36.303Z,8.54
2023-04-07T00:49:46.565Z,8.56
2023-04-07T00:49:56.814Z,8.56
2023-04-07T00:50:07.090Z,8.54
2023-04-07T00:50:17.338Z,8.56
2023-04-07T00:50:27.604Z,8.59
2023-04-07T00:50:37.855Z,8.56
2023-04-07T00:50:48.116Z,8.57
2023-04-07T00:50:58.376Z,8.56
2023-04-07T00:51:08.641Z,8.57
2023-04-07T00:51:18.903Z,8.54
2023-04-07T00:51:29.162Z,8.56
2023-04-07T00:51:39.423Z,8.57
2023-04-07T00:51:49.696Z,8.56
2023-04-07T00:51:59.945Z,8.56
2023-04-07T00:52:10.201Z,8.57
2023-04-07T00:52:20.462Z,8.56
2023-04-07T00:52:30.725Z,8.54
2023-04-07T00:52:41.004Z,8.56
2023-04-07T00:52:51.245Z,8.56
2023-04-07T00:53:01.504Z,8.57
2023-04-07T00:53:11.767Z,8.56
2023-04-07T00:53:22.106Z,8.56
2023-04-07T00:53:32.497Z,8.56
2023-04-07T00:53:42.870Z,8.56
2023-04-07T00:53:53.528Z,8.56
2023-04-07T00:54:03.530Z,8.56
2023-04-07T00:54:13.793Z,8.57
2023-04-07T00:54:24.079Z,8.56
2023-04-07T00:54:34.367Z,8.57
2023-04-07T00:54:44.624Z,8.57
2023-04-07T00:54:54.884Z,8.57
2023-04-07T00:55:05.148Z,8.57
2023-04-07T00:55:15.415Z,8.57
2023-04-07T00:55:25.675Z,8.57
2023-04-07T00:55:35.939Z,8.57
2023-04-07T00:55:46.219Z,8.56
2023-04-07T00:55:56.460Z,8.54
2023-04-07T00:56:06.770Z,8.57
2023-04-07T00:56:16.987Z,8.56
2023-04-07T00:56:27.249Z,8.57
2023-04-07T00:56:37.508Z,8.59
2023-04-07T00:56:47.777Z,8.56
2023-04-07T00:56:58.033Z,8.56
2023-04-07T00:57:08.298Z,8.57
2023-04-07T00:57:18.674Z,8.57
2023-04-07T00:57:28.948Z,8.56
2023-04-07T00:57:39.193Z,8.56
2023-04-07T00:57:49.475Z,8.56
2023-04-07T00:57:59.728Z,8.57
2023-04-07T00:58:09.991Z,8.59
2023-04-07T00:58:20.259Z,8.57
2023-04-07T00:58:30.506Z,8.56
2023-04-07T00:58:40.769Z,8.59
2023-04-07T00:58:51.026Z,8.57
2023-04-07T00:59:01.291Z,8.57
2023-04-07T00:59:11.582Z,8.56
2023-04-07T00:59:21.819Z,8.54
2023-04-07T00:59:32.080Z,8.57
2023-04-07T00:59:42.339Z,8.56
2023-04-07T00:59:52.601Z,8.57
2023-04-07T01:00:02.885Z,8.57
2023-04-07T01:00:13.126Z,8.60
2023-04-07T01:00:23.389Z,8.57
2023-04-07T01:00:33.644Z,8.56
2023-04-07T01:00:43.914Z,8.56
2023-04-07T01:00:54.169Z,8.59
2023-04-07T01:01:04.454Z,8.57
2023-04-07T01:01:14.689Z,8.56
2023-04-07T01:01:25.023Z,8.56
2023-04-07T01:01:35.342Z,8.59
2023-04-07T01:01:45.691Z,8.57
2023-04-07T01:01:56.003Z,8.59
2023-04-07T01:02:06.348Z,8.57
2023-04-07T01:02:16.718Z,8.56
2023-04-07T01:02:27.534Z,8.57
2023-04-07T01:02:37.476Z,8.56
2023-04-07T01:02:47.736Z,8.59
2023-04-07T01:02:58.073Z,8.57
2023-04-07T01:03:08.454Z,8.57
2023-04-07T01:03:18.907Z,8.56
2023-04-07T01:03:29.234Z,8.57
2023-04-07T01:03:39.507Z,8.57
2023-04-07T01:03:49.745Z,8.57
2023-04-07T01:04:00.354Z,8.59
2023-04-07T01:04:10.244Z,8.57
2023-04-07T01:04:20.578Z,8.59
2023-04-07T01:04:30.878Z,8.56
2023-04-07T01:04:41.237Z,8.57
2023-04-07T01:04:51.851Z,8.60
2023-04-07T01:05:01.840Z,8.57
2023-04-07T01:05:12.054Z,8.57
2023-04-07T01:05:22.320Z,8.56
2023-04-07T01:05:32.573Z,8.57
2023-04-07T01:05:42.837Z,8.60
2023-04-07T01:05:53.093Z,8.57
2023-04-07T01:06:03.372Z,8.57
2023-04-07T01:06:13.634Z,8.59
2023-04-07T01:06:23.889Z,8.59
2023-04-07T01:06:34.148Z,8.56
2023-04-07T01:06:44.424Z,8.60
2023-04-07T01:06:54.668Z,8.57
2023-04-07T01:07:04.925Z,8.57
2023-04-07T01:07:15.192Z,8.59
2023-04-07T01:07:25.463Z,8.56
2023-04-07T01:07:35.717Z,8.57
2023-04-07T01:07:45.996Z,8.59
2023-04-07T01:07:56.237Z,8.57
2023-04-07T01:08:06.510Z,8.57
2023-04-07T01:08:16.759Z,8.57
2023-04-07T01:08:27.029Z,8.57
2023-04-07T01:08:37.274Z,8.57
2023-04-07T01:08:47.536Z,8.57
2023-04-07T01:08:57.802Z,8.56
2023-04-07T01:09:08.079Z,8.59
2023-04-07T01:09:18.334Z,8.59
2023-04-07T01:09:28.594Z,8.59
2023-04-07T01:09:38.855Z,8.59
2023-04-07T01:09:49.120Z,8.59
2023-04-07T01:09:59.376Z,8.57
2023-04-07T01:10:09.645Z,8.57
2023-04-07T01:10:19.896Z,8.59
2023-04-07T01:10:30.163Z,8.59
2023-04-07T01:10:40.425Z,8.57
2023-04-07T01:10:50.710Z,8.60
2023-04-07T01:11:00.953Z,8.57
2023-04-07T01:11:11.204Z,8.59
2023-04-07T01:11:21.463Z,8.57
2023-04-07T01:11:31.724Z,8.57
2023-04-07T01:11:41.991Z,8.59
2023-04-07T01:11:52.243Z,8.59
2023-04-07T01:12:02.523Z,8.59
2023-04-07T01:12:12.770Z,8.59
2023-04-07T01:12:23.024Z,8.59
2023-04-07T01:12:33.298Z,8.57
2023-04-07T01:12:43.555Z,8.57
2023-04-07T01:12:53.805Z,8.57
2023-04-07T01:13:04.071Z,8.59
2023-04-07T01:13:14.328Z,8.56
2023-04-07T01:13:24.591Z,8.57
2023-04-07T01:13:34.850Z,8.59
2023-04-07T01:13:45.116Z,8.60
2023-04-07T01:13:55.604Z,8.59
2023-04-07T01:14:05.612Z,8.57
2023-04-07T01:14:15.864Z,8.59
2023-04-07T01:14:26.128Z,8.57
2023-04-07T01:14:36.389Z,8.59
2023-04-07T01:14:46.650Z,8.59
2023-04-07T01:14:56.912Z,8.60
2023-04-07T01:15:07.171Z,8.57
2023-04-07T01:15:17.430Z,8.59
2023-04-07T01:15:27.689Z,8.57
2023-04-07T01:15:37.955Z,8.57
2023-04-07T01:15:48.257Z,8.60
2023-04-07T01:15:58.528Z,8.59
2023-04-07T01:16:08.879Z,8.59
2023-04-07T01:16:19.163Z,8.59
2023-04-07T01:16:29.431Z,8.59
2023-04-07T01:16:39.856Z,8.57
2023-04-07T01:16:49.988Z,8.57
2023-04-07T01:17:00.232Z,8.57
2023-04-07T01:17:10.488Z,8.59
2023-04-07T01:17:20.748Z,8.57
2023-04-07T01:17:31.053Z,8.57
2023-04-07T01:17:41.319Z,8.57
2023-04-07T01:17:51.599Z,8.59
2023-04-07T01:18:01.939Z,8.57
2023-04-07T01:18:12.230Z,8.57
2023-04-07T01:18:22.490Z,8.59
2023-04-07T01:18:32.749Z,8.57
2023-04-07T01:18:43.003Z,8.57
2023-04-07T01:18:53.263Z,8.57
2023-04-07T01:19:03.532Z,8.56
2023-04-07T01:19:13.816Z,8.56
2023-04-07T01:19:24.064Z,8.57
2023-04-07T01:19:34.340Z,8.57
2023-04-07T01:19:44.591Z,8.57
2023-04-07T01:19:54.851Z,8.59
2023-04-07T01:20:05.110Z,8.59
2023-04-07T01:20:15.372Z,8.59
2023-04-07T01:20:25.638Z,8.57
2023-04-07T01:20:35.900Z,8.57
2023-04-07T01:20:46.153Z,8.57
2023-04-07T01:20:56.416Z,8.57
2023-04-07T01:21:06.669Z,8.57
2023-04-07T01:21:16.939Z,8.59
2023-04-07T01:21:27.199Z,8.57
2023-04-07T01:21:37.453Z,8.57
2023-04-07T01:21:47.724Z,8.56
2023-04-07T01:21:57.978Z,8.59
2023-04-07T01:22:08.239Z,8.59
2023-04-07T01:22:18.504Z,8.59
2023-04-07T01:22:28.755Z,8.59
2023-04-07T01:22:39.012Z,8.57
2023-04-07T01:22:49.278Z,8.59
2023-04-07T01:22:59.534Z,8.59
2023-04-07T01:23:09.796Z,8.57
2023-04-07T01:23:20.060Z,8.59
2023-04-07T01:23:30.316Z,8.56
2023-04-07T01:23:40.595Z,8.59
2023-04-07T01:23:50.847Z,8.59
2023-04-07T01:24:01.135Z,8.59
2023-04-07T01:24:11.385Z,8.59
2023-04-07T01:24:21.731Z,8.59
2023-04-07T01:24:31.970Z,8.59
2023-04-07T01:24:42.233Z,8.59
2023-04-07T01:24:52.500Z,8.57
2023-04-07T01:25:02.785Z,8.59
2023-04-07T01:25:13.019Z,8.59
2023-04-07T01:25:23.276Z,8.59
2023-04-07T01:25:33.531Z,8.57
2023-04-07T01:25:43.792Z,8.57
2023-04-07T01:25:54.081Z,8.60
2023-04-07T01:26:04.322Z,8.57
2023-04-07T01:26:14.575Z,8.57
2023-04-07T01:26:24.839Z,8.57
2023-04-07T01:26:35.098Z,8.57
2023-04-07T01:26:45.361Z,8.59
2023-04-07T01:26:55.621Z,8.59
2023-04-07T01:27:05.880Z,8.59
2023-04-07T01:27:16.142Z,8.56
2023-04-07T01:27:26.415Z,8.56
2023-04-07T01:27:36.660Z,8.57
2023-04-07T01:27:46.925Z,8.57
2023-04-07T01:27:57.185Z,8.57
2023-04-07T01:28:07.446Z,8.59
2023-04-07T01:28:17.705Z,8.57
2023-04-07T01:28:27.965Z,8.59
2023-04-07T01:28:38.233Z,8.57
2023-04-07T01:28:48.490Z,8.57
2023-04-07T01:28:58.766Z,8.57
2023-04-07T01:29:09.016Z,8.57
2023-04-07T01:29:19.283Z,8.57
2023-04-07T01:29:29.540Z,8.60
2023-04-07T01:29:39.801Z,8.59
2023-04-07T01:29:50.075Z,8.56
2023-04-07T01:30:00.343Z,8.59
2023-04-07T03:47:04.851Z,8.46
2023-04-07T03:47:05.390Z,8.45
2023-04-07T03:47:15.646Z,8.46
2023-04-07T03:47:25.945Z,8.46
2023-04-07T03:47:36.231Z,8.46
2023-04-07T03:47:46.544Z,8.46
2023-04-07T03:48:07.295Z,8.46
2023-04-07T03:48:17.653Z,8.46
2023-04-07T03:48:29.288Z,8.45
2023-04-07T03:48:38.356Z,8.46
2023-04-07T03:48:48.629Z,8.45
2023-04-07T03:48:58.873Z,8.46
2023-04-07T03:49:09.137Z,8.46
2023-04-07T03:49:19.391Z,8.45
2023-04-07T03:49:29.653Z,8.46
2023-04-07T03:49:39.909Z,8.46
2023-04-07T03:49:50.167Z,8.45
2023-04-07T03:50:00.434Z,8.49
2023-04-07T03:50:10.689Z,8.45
2023-04-07T03:50:20.953Z,8.45
2023-04-07T03:50:31.208Z,8.45
2023-04-07T03:50:41.471Z,8.46
2023-04-07T03:50:51.731Z,8.49
2023-04-07T03:51:01.996Z,8.46
2023-04-07T03:51:12.249Z,8.46
2023-04-07T03:51:22.525Z,8.46
2023-04-07T03:51:32.772Z,8.46
2023-04-07T03:51:43.030Z,8.46
2023-04-07T03:51:53.291Z,8.45
2023-04-07T03:52:03.548Z,8.49
2023-04-07T03:52:13.807Z,8.45
2023-04-07T03:52:24.087Z,8.45
2023-04-07T03:52:34.339Z,8.46
2023-04-07T03:52:44.598Z,8.46
2023-04-07T03:52:54.878Z,8.44
2023-04-07T03:53:05.139Z,8.45
2023-04-07T03:53:15.392Z,8.45
2023-04-07T03:53:25.651Z,8.45
2023-04-07T03:53:35.912Z,8.44
2023-04-07T03:53:46.195Z,8.45
2023-04-07T03:53:56.469Z,8.46
2023-04-07T03:54:06.720Z,8.45
2023-04-07T03:54:16.979Z,8.45
2023-04-07T03:54:27.240Z,8.46
2023-04-07T03:54:37.495Z,8.46
2023-04-07T03:54:47.755Z,8.45
2023-04-07T03:54:58.019Z,8.45
2023-04-07T03:55:08.285Z,8.44
2023-04-07T03:55:18.566Z,8.45
2023-04-07T03:55:28.796Z,8.49
2023-04-07T03:55:39.098Z,8.44
2023-04-07T03:55:49.356Z,8.44
2023-04-07T03:55:59.619Z,8.45
2023-04-07T03:56:09.881Z,8.44
2023-04-07T03:56:20.141Z,8.45
2023-04-07T03:56:30.400Z,8.44
2023-04-07T03:56:40.661Z,8.44
2023-04-07T03:56:50.922Z,8.44
2023-04-07T03:57:01.186Z,8.45
2023-04-07T03:57:11.452Z,8.44
2023-04-07T03:57:21.703Z,8.44
2023-04-07T03:57:31.964Z,8.45
2023-04-07T03:57:42.225Z,8.44
2023-04-07T03:57:52.486Z,8.44
2023-04-07T03:58:02.746Z,8.45
2023-04-07T03:58:13.022Z,8.44
2023-04-07T03:58:23.280Z,8.45
2023-04-07T03:58:33.559Z,8.45
2023-04-07T03:58:43.823Z,8.45
2023-04-07T03:58:54.086Z,8.44
2023-04-07T03:59:04.339Z,8.44
2023-04-07T03:59:14.603Z,8.45
2023-04-07T03:59:24.871Z,8.44
2023-04-07T03:59:35.160Z,8.45
2023-04-07T03:59:45.403Z,8.45
2023-04-07T03:59:55.660Z,8.44
2023-04-07T04:00:05.926Z,8.45
2023-04-07T04:00:16.203Z,8.44
2023-04-07T04:00:26.448Z,8.44
2023-04-07T04:00:36.713Z,8.45
2023-04-07T04:00:46.968Z,8.44
2023-04-07T04:00:57.228Z,8.45
2023-04-07T04:01:07.504Z,8.45
2023-04-07T04:01:17.750Z,8.46
2023-04-07T04:01:28.029Z,8.44
2023-04-07T04:01:38.339Z,8.45
2023-04-07T04:01:48.634Z,8.45
2023-04-07T04:01:58.904Z,8.45
2023-04-07T04:02:09.430Z,8.44
2023-04-07T04:02:19.728Z,8.46
2023-04-07T04:02:29.926Z,8.45
2023-04-07T04:02:40.288Z,8.45
2023-04-07T04:02:50.674Z,8.45
2023-04-07T04:03:00.992Z,8.45
2023-04-07T04:03:11.388Z,8.45
2023-04-07T04:03:21.931Z,8.45
2023-04-07T04:03:32.099Z,8.45
2023-04-07T04:03:42.396Z,8.45
2023-04-07T04:03:53.094Z,8.45
2023-04-07T04:04:02.972Z,8.45
2023-04-07T04:04:13.298Z,8.45
2023-04-07T04:04:23.366Z,8.45
2023-04-07T04:04:33.655Z,8.46
2023-04-07T04:04:43.962Z,8.44
2023-04-07T04:04:54.216Z,8.45
2023-04-07T04:05:04.454Z,8.45
2023-04-07T04:05:14.724Z,8.45
2023-04-07T04:05:24.977Z,8.45
2023-04-07T04:05:35.236Z,8.45
2023-04-07T04:05:45.509Z,8.45
2023-04-07T04:05:55.752Z,8.45
2023-04-07T04:06:06.020Z,8.45
2023-04-07T04:06:16.275Z,8.45
2023-04-07T04:06:26.541Z,8.45
2023-04-07T04:06:36.798Z,8.46
2023-04-07T04:06:47.056Z,8.45
2023-04-07T04:06:57.312Z,8.46
2023-04-07T04:07:07.570Z,8.44
2023-04-07T04:07:17.832Z,8.44
2023-04-07T04:07:28.091Z,8.46
2023-04-07T04:07:38.357Z,8.44
2023-04-07T04:07:48.619Z,8.44
2023-04-07T04:07:58.874Z,8.46
2023-04-07T04:08:09.131Z,8.42
2023-04-07T04:08:19.399Z,8.42
2023-04-07T04:08:29.655Z,8.45
2023-04-07T04:08:39.925Z,8.44
2023-04-07T04:08:50.190Z,8.45
2023-04-07T04:09:00.454Z,8.44
2023-04-07T04:09:10.702Z,8.44
2023-04-07T04:09:20.967Z,8.44
2023-04-07T04:09:31.226Z,8.45
2023-04-07T04:09:41.492Z,8.45
2023-04-07T04:09:51.745Z,8.46
2023-04-07T04:10:02.012Z,8.45
2023-04-07T04:10:12.267Z,8.41
2023-04-07T04:10:22.528Z,8.44
2023-04-07T04:10:32.787Z,8.45
2023-04-07T04:10:43.047Z,8.46
2023-04-07T04:10:53.304Z,8.45
2023-04-07T04:11:03.577Z,8.44
2023-04-07T04:11:13.826Z,8.45
2023-04-07T04:11:24.110Z,8.45
2023-04-07T04:11:34.362Z,8.45
2023-04-07T04:11:44.614Z,8.45
2023-04-07T04:11:54.889Z,8.45
2023-04-07T04:12:05.134Z,8.45
2023-04-07T04:12:15.398Z,8.45
2023-04-07T04:12:25.655Z,8.46
2023-04-07T04:12:35.914Z,8.42
2023-04-07T04:12:46.176Z,8.44
2023-04-07T04:12:56.437Z,8.45
2023-04-07T04:13:06.804Z,8.44
2023-04-07T04:13:17.092Z,8.45
2023-04-07T04:13:27.347Z,8.45
2023-04-07T04:13:37.602Z,8.44
2023-04-07T04:13:47.862Z,8.44
2023-04-07T04:13:58.122Z,8.45
2023-04-07T04:14:08.382Z,8.45
2023-04-07T04:14:18.642Z,8.45
2023-04-07T04:14:28.899Z,8.44
2023-04-07T04:14:39.165Z,8.44
2023-04-07T04:14:49.424Z,8.45
2023-04-07T04:14:59.684Z,8.45
2023-04-07T04:15:09.947Z,8.45
2023-04-07T04:15:20.207Z,8.44
2023-04-07T04:15:30.467Z,8.45
2023-04-07T04:15:40.756Z,8.45
2023-04-07T04:15:51.071Z,8.45
2023-04-07T04:16:01.341Z,8.44
2023-04-07T04:16:13.796Z,8.45
2023-04-07T04:16:21.890Z,8.44
2023-04-07T04:16:32.174Z,8.44
2023-04-07T04:16:42.407Z,8.44
2023-04-07T04:16:52.673Z,8.44
2023-04-07T04:17:05.564Z,8.42
2023-04-07T04:17:13.356Z,8.44
2023-04-07T04:17:23.649Z,8.45
2023-04-07T04:17:33.928Z,8.45
2023-04-07T04:17:44.319Z,8.44
2023-04-07T04:17:54.606Z,8.45
2023-04-07T04:18:04.964Z,8.42
2023-04-07T04:18:15.188Z,8.45
2023-04-07T04:18:25.459Z,8.44
2023-04-07T04:18:35.720Z,8.45
2023-04-07T04:18:45.981Z,8.44
2023-04-07T04:18:56.243Z,8.44
2023-04-07T04:19:06.500Z,8.44
2023-04-07T04:19:16.762Z,8.45
2023-04-07T04:19:27.022Z,8.44
2023-04-07T04:19:37.282Z,8.44
2023-04-07T04:19:47.547Z,8.44
2023-04-07T04:19:57.805Z,8.44
2023-04-07T04:20:08.061Z,8.45
2023-04-07T04:20:18.321Z,8.44
2023-04-07T04:20:28.579Z,8.45
2023-04-07T04:20:38.839Z,8.44
2023-04-07T04:20:49.097Z,8.44
2023-04-07T04:20:59.359Z,8.44
2023-04-07T04:21:09.623Z,8.42
2023-04-07T04:21:19.889Z,8.44
2023-04-07T04:21:30.144Z,8.44
2023-04-07T04:21:40.406Z,8.44
2023-04-07T04:21:50.664Z,8.44
2023-04-07T04:22:00.923Z,8.45
2023-04-07T04:22:11.182Z,8.42
2023-04-07T04:22:21.440Z,8.42
2023-04-07T04:22:31.702Z,8.42
2023-04-07T04:22:41.968Z,8.45
2023-04-07T04:22:52.227Z,8.44
2023-04-07T04:23:02.488Z,8.44
2023-04-07T04:23:12.761Z,8.42
2023-04-07T04:23:23.021Z,8.45
2023-04-07T04:23:33.281Z,8.44
2023-04-07T04:23:43.549Z,8.44
2023-04-07T04:23:54.039Z,8.44
2023-04-07T04:24:04.032Z,8.42
2023-04-07T04:24:14.390Z,8.41
2023-04-07T04:24:24.654Z,8.45
2023-04-07T04:24:34.917Z,8.42
2023-04-07T04:24:45.264Z,8.45
2023-04-07T04:24:55.494Z,8.42
2023-04-07T04:25:05.752Z,8.44
2023-04-07T04:25:16.018Z,8.44
2023-04-07T04:25:26.276Z,8.44
2023-04-07T04:25:36.539Z,8.44
2023-04-07T04:25:46.795Z,8.42
2023-04-07T04:25:57.055Z,8.42
2023-04-07T04:26:07.318Z,8.42
2023-04-07T04:26:17.580Z,8.44
2023-04-07T04:26:27.839Z,8.42
2023-04-07T04:26:38.100Z,8.44
2023-04-07T04:26:48.357Z,8.44
2023-04-07T04:26:58.616Z,8.44
2023-04-07T04:27:08.883Z,8.44
2023-04-07T04:27:19.145Z,8.44
2023-04-07T04:27:29.406Z,8.42
2023-04-07T04:27:39.660Z,8.42
2023-04-07T04:27:49.922Z,8.42
2023-04-07T04:28:00.181Z,8.45
2023-04-07T04:28:10.460Z,8.44
2023-04-07T04:28:20.709Z,8.44
2023-04-07T04:28:31.054Z,8.42
2023-04-07T04:28:41.317Z,8.44
2023-04-07T04:28:51.570Z,8.42
2023-04-07T04:29:01.831Z,8.41
2023-04-07T04:29:12.112Z,8.45
2023-04-07T04:29:22.350Z,8.44
2023-04-07T04:29:32.997Z,8.42
2023-04-07T04:29:42.901Z,8.44
2023-04-07T04:29:53.161Z,8.42
2023-04-07T04:30:03.428Z,8.45
2023-04-07T04:30:13.687Z,8.44
2023-04-07T04:30:23.944Z,8.44
2023-04-07T04:30:34.221Z,8.42
2023-04-07T04:30:44.489Z,8.44
2023-04-07T04:30:54.757Z,8.44
2023-04-07T04:31:05.094Z,8.44
2023-04-07T04:31:15.421Z,8.44
2023-04-07T04:31:25.745Z,8.42
2023-04-07T04:31:36.067Z,8.42
2023-04-07T04:31:46.362Z,8.42
2023-04-07T04:31:56.614Z,8.44
2023-04-07T04:32:06.876Z,8.44
2023-04-07T04:32:17.147Z,8.44
2023-04-07T04:32:27.505Z,8.42
2023-04-07T04:32:37.784Z,8.42
2023-04-07T04:32:48.098Z,8.42
2023-04-07T04:32:58.422Z,8.42
2023-04-07T04:33:08.698Z,8.44
2023-04-07T04:33:18.961Z,8.44
2023-04-07T04:33:29.255Z,8.42
2023-04-07T04:33:39.496Z,8.42